createdAt,value
2017-07-11T00:02:18.727Z,18.59
2017-07-11T00:04:47.777Z,18.58
2017-07-11T00:07:16.869Z,18.57
2017-07-11T00:09:45.908Z,18.55
2017-07-11T00:12:14.980Z,18.55
2017-07-11T00:14:44.033Z,18.53
2017-07-11T00:17:13.136Z,18.55
2017-07-11T00:19:42.196Z,18.55
2017-07-11T00:22:12.022Z,18.58
2017-07-11T00:24:41.844Z,18.58
2017-07-11T00:27:10.896Z,18.58
2017-07-11T00:29:39.957Z,18.58
2017-07-11T00:32:09.044Z,18.54
2017-07-11T00:34:38.084Z,18.56
2017-07-11T00:37:07.161Z,18.56
2017-07-11T00:39:36.212Z,18.53
2017-07-11T00:42:06.036Z,18.50
2017-07-11T00:44:35.105Z,18.50
2017-07-11T00:47:05.224Z,18.45
2017-07-11T00:49:34.272Z,18.45
2017-07-11T00:52:03.322Z,18.46
2017-07-11T00:54:33.171Z,18.44
2017-07-11T00:57:02.253Z,18.46
2017-07-11T00:59:31.335Z,18.46
2017-07-11T01:02:00.377Z,18.43
2017-07-11T01:04:29.456Z,18.43
2017-07-11T01:06:58.617Z,18.46
2017-07-11T01:09:27.681Z,18.47
2017-07-11T01:11:56.721Z,18.47
2017-07-11T01:14:25.781Z,18.47
2017-07-11T01:16:54.868Z,18.49
2017-07-11T01:19:23.925Z,18.51
2017-07-11T01:21:53.008Z,18.54
2017-07-11T01:24:22.051Z,18.55
2017-07-11T01:26:51.116Z,18.56
2017-07-11T01:29:20.169Z,18.56
2017-07-11T01:31:49.308Z,18.55
2017-07-11T01:34:18.373Z,18.53
2017-07-11T01:36:48.181Z,18.53
2017-07-11T01:39:17.264Z,18.55
2017-07-11T01:41:47.085Z,18.52
2017-07-11T01:44:16.168Z,18.54
2017-07-11T01:46:46.024Z,18.52
2017-07-11T01:49:15.086Z,18.52
2017-07-11T01:51:44.905Z,18.52
2017-07-11T01:54:13.952Z,18.51
2017-07-11T01:56:43.037Z,18.49
2017-07-11T01:59:12.079Z,18.51
2017-07-11T02:01:41.160Z,18.52
2017-07-11T02:04:10.233Z,18.52
2017-07-11T02:06:40.149Z,18.50
2017-07-11T02:09:09.233Z,18.47
2017-07-11T02:11:38.289Z,18.46
2017-07-11T02:14:08.395Z,18.45
2017-07-11T02:16:37.440Z,18.43
2017-07-11T02:19:06.522Z,18.41
2017-07-11T02:21:35.588Z,18.44
2017-07-11T02:24:04.665Z,18.44
2017-07-11T02:26:33.723Z,18.42
2017-07-11T02:29:02.860Z,18.38
2017-07-11T02:31:31.939Z,18.35
2017-07-11T02:34:01.017Z,18.37
2017-07-11T02:36:30.078Z,18.37
2017-07-11T02:38:59.124Z,18.37
2017-07-11T02:41:28.935Z,18.35
2017-07-11T02:43:58.768Z,18.34
2017-07-11T02:46:27.841Z,18.33
2017-07-11T02:48:56.895Z,18.26
2017-07-11T02:51:25.965Z,18.23
2017-07-11T02:53:55.221Z,18.18
2017-07-11T02:56:24.301Z,18.18
2017-07-11T02:58:53.365Z,18.15
2017-07-11T03:01:22.434Z,18.11
2017-07-11T03:03:52.301Z,18.08
2017-07-11T03:06:21.488Z,18.06
2017-07-11T03:08:50.579Z,18.03
2017-07-11T03:11:19.627Z,17.99
2017-07-11T03:13:48.663Z,17.95
2017-07-11T03:16:17.714Z,17.91
2017-07-11T03:18:47.540Z,17.90
2017-07-11T03:21:16.584Z,17.86
2017-07-11T03:23:45.673Z,17.84
2017-07-11T03:26:14.763Z,17.79
2017-07-11T03:28:43.801Z,17.77
2017-07-11T03:31:12.866Z,17.71
2017-07-11T03:33:41.926Z,17.70
2017-07-11T03:36:11.013Z,17.67
2017-07-11T03:38:40.803Z,17.66
2017-07-11T03:41:09.882Z,17.62
2017-07-11T03:43:39.354Z,17.61
2017-07-11T03:46:08.421Z,17.51
2017-07-11T03:48:39.035Z,17.46
2017-07-11T03:51:08.843Z,17.42
2017-07-11T03:53:37.890Z,17.40
2017-07-11T03:56:07.008Z,17.39
2017-07-11T03:58:36.020Z,17.39
2017-07-11T04:01:05.841Z,17.38
2017-07-11T04:03:34.895Z,17.33
2017-07-11T04:06:03.989Z,17.30
2017-07-11T04:08:33.135Z,17.27
2017-07-11T04:11:02.181Z,17.28
2017-07-11T04:13:31.240Z,17.24
2017-07-11T04:16:00.305Z,17.23
2017-07-11T04:18:29.345Z,17.25
2017-07-11T04:20:58.413Z,17.24
2017-07-11T04:23:28.240Z,17.26
2017-07-11T04:25:57.284Z,17.25
2017-07-11T04:28:26.358Z,17.25
2017-07-11T04:30:55.403Z,17.27
2017-07-11T04:33:24.452Z,17.26
2017-07-11T04:35:53.524Z,17.24
2017-07-11T04:38:22.574Z,17.31
2017-07-11T04:40:52.419Z,17.29
2017-07-11T04:43:21.455Z,17.30
2017-07-11T04:45:50.533Z,17.31
2017-07-11T04:48:19.832Z,17.32
2017-07-11T04:50:48.891Z,17.34
2017-07-11T04:53:17.979Z,17.32
2017-07-11T04:55:47.882Z,17.38
2017-07-11T04:58:16.929Z,17.40
2017-07-11T05:00:46.000Z,17.44
2017-07-11T05:03:15.901Z,17.46
2017-07-11T05:05:44.979Z,17.44
2017-07-11T05:08:14.828Z,17.49
2017-07-11T05:10:43.936Z,17.51
2017-07-11T05:13:12.995Z,17.53
2017-07-11T05:15:42.085Z,17.56
2017-07-11T05:18:11.909Z,17.54
2017-07-11T05:20:40.958Z,17.58
2017-07-11T05:23:10.772Z,17.58
2017-07-11T05:25:39.840Z,17.58
2017-07-11T05:28:08.956Z,17.63
2017-07-11T05:30:38.019Z,17.61
2017-07-11T05:33:07.067Z,17.64
2017-07-11T05:35:36.124Z,17.68
2017-07-11T05:38:05.179Z,17.74
2017-07-11T05:40:35.018Z,17.74
2017-07-11T05:43:04.060Z,17.82
2017-07-11T05:45:33.132Z,17.87
2017-07-11T05:48:02.176Z,17.88
2017-07-11T05:50:31.229Z,17.92
2017-07-11T05:53:00.287Z,17.99
2017-07-11T05:55:29.656Z,18.03
2017-07-11T05:57:58.699Z,18.15
2017-07-11T06:00:27.918Z,18.32
2017-07-11T06:02:56.999Z,18.51
2017-07-11T06:05:26.061Z,18.72
2017-07-11T06:07:55.135Z,18.90
2017-07-11T06:10:24.986Z,19.07
2017-07-11T06:12:54.076Z,19.23
2017-07-11T06:15:23.119Z,19.33
2017-07-11T06:17:52.204Z,19.33
2017-07-11T06:20:21.274Z,19.28
2017-07-11T06:22:50.336Z,19.22
2017-07-11T06:25:19.382Z,19.19
2017-07-11T06:27:48.425Z,19.21
2017-07-11T06:30:17.477Z,19.30
2017-07-11T06:32:46.546Z,19.35
2017-07-11T06:35:15.639Z,19.46
2017-07-11T06:37:44.737Z,19.56
2017-07-11T06:40:13.800Z,19.60
2017-07-11T06:42:43.613Z,19.58
2017-07-11T06:45:12.668Z,19.50
2017-07-11T06:47:41.748Z,19.46
2017-07-11T06:50:10.799Z,19.39
2017-07-11T06:52:40.599Z,19.39
2017-07-11T06:55:10.645Z,19.44
2017-07-11T06:57:40.462Z,19.44
2017-07-11T07:00:09.545Z,19.44
2017-07-11T07:02:38.613Z,19.38
2017-07-11T07:05:08.477Z,19.35
2017-07-11T07:07:37.696Z,19.27
2017-07-11T07:10:06.760Z,19.23
2017-07-11T07:12:35.866Z,19.18
2017-07-11T07:15:04.942Z,19.19
2017-07-11T07:17:34.013Z,19.18
2017-07-11T07:20:03.865Z,19.18
2017-07-11T07:22:33.040Z,19.18
2017-07-11T07:25:02.160Z,19.23
2017-07-11T07:27:31.248Z,19.24
2017-07-11T07:30:00.336Z,19.23
2017-07-11T07:32:30.168Z,19.19
2017-07-11T07:34:59.264Z,19.15
2017-07-11T07:37:28.364Z,19.12
2017-07-11T07:39:57.412Z,19.10
2017-07-11T07:42:27.232Z,19.03
2017-07-11T07:44:56.341Z,19.03
2017-07-11T07:47:25.413Z,19.01
2017-07-11T07:49:55.269Z,18.91
2017-07-11T07:52:24.313Z,18.84
2017-07-11T07:54:54.152Z,18.74
2017-07-11T07:57:25.023Z,18.78
2017-07-11T07:59:55.153Z,18.85
2017-07-11T08:02:24.315Z,18.86
2017-07-11T08:04:53.348Z,18.95
2017-07-11T08:07:22.470Z,19.03
2017-07-11T08:09:52.310Z,19.10
2017-07-11T08:12:21.363Z,19.09
2017-07-11T08:14:50.454Z,19.04
2017-07-11T08:17:19.529Z,19.02
2017-07-11T08:19:48.626Z,19.01
2017-07-11T08:22:17.692Z,19.03
2017-07-11T08:24:46.778Z,19.03
2017-07-11T08:27:15.822Z,19.10
2017-07-11T08:29:44.986Z,19.17
2017-07-11T08:32:14.043Z,19.20
2017-07-11T08:34:43.117Z,19.21
2017-07-11T08:37:12.215Z,19.29
2017-07-11T08:39:41.269Z,19.39
2017-07-11T08:42:10.509Z,19.47
2017-07-11T08:44:39.608Z,19.55
2017-07-11T08:47:08.730Z,19.69
2017-07-11T08:49:37.756Z,19.79
2017-07-11T08:52:06.848Z,19.94
2017-07-11T08:54:35.943Z,20.11
2017-07-11T08:57:05.109Z,20.22
2017-07-11T08:59:34.196Z,20.35
2017-07-11T09:02:04.124Z,20.47
2017-07-11T09:04:33.977Z,20.36
2017-07-11T09:07:03.047Z,20.29
2017-07-11T09:09:32.097Z,20.20
2017-07-11T09:12:01.196Z,20.19
2017-07-11T09:14:31.039Z,20.15
2017-07-11T09:17:00.127Z,20.12
2017-07-11T09:19:29.187Z,20.07
2017-07-11T09:21:58.329Z,20.07
2017-07-11T09:24:27.385Z,20.07
2017-07-11T09:26:56.457Z,20.11
2017-07-11T09:29:25.527Z,20.22
2017-07-11T09:31:54.612Z,20.33
2017-07-11T09:34:23.704Z,20.40
2017-07-11T09:36:52.769Z,20.48
2017-07-11T09:39:22.593Z,20.61
2017-07-11T09:41:52.447Z,20.71
2017-07-11T09:44:21.509Z,20.94
2017-07-11T09:46:50.589Z,21.17
2017-07-11T09:49:20.434Z,21.33
2017-07-11T09:51:49.516Z,21.40
2017-07-11T09:54:18.576Z,21.48
2017-07-11T09:56:47.651Z,21.60
2017-07-11T09:59:17.065Z,21.69
2017-07-11T10:01:46.147Z,21.73
2017-07-11T10:04:15.227Z,21.88
2017-07-11T10:06:44.274Z,22.11
2017-07-11T10:09:14.092Z,22.14
2017-07-11T10:11:43.175Z,22.15
2017-07-11T10:14:12.336Z,22.31
2017-07-11T10:16:41.395Z,22.50
2017-07-11T10:19:11.200Z,22.65
2017-07-11T10:21:40.272Z,22.71
2017-07-11T10:24:09.384Z,22.77
2017-07-11T10:26:38.478Z,22.90
2017-07-11T10:29:08.307Z,22.99
2017-07-11T10:31:37.441Z,23.16
2017-07-11T10:34:06.486Z,23.44
2017-07-11T10:36:36.304Z,23.60
2017-07-11T10:39:05.442Z,23.71
2017-07-11T10:41:34.479Z,23.72
2017-07-11T10:44:04.321Z,23.80
2017-07-11T10:46:34.145Z,23.88
2017-07-11T10:49:03.242Z,23.89
2017-07-11T10:51:32.280Z,23.88
2017-07-11T10:54:01.328Z,23.88
2017-07-11T10:56:30.422Z,23.98
2017-07-11T10:58:59.482Z,24.00
2017-07-11T11:01:29.355Z,24.03
2017-07-11T11:03:58.433Z,24.15
2017-07-11T11:06:27.492Z,24.05
2017-07-11T11:08:57.357Z,24.00
2017-07-11T11:11:26.411Z,23.88
2017-07-11T11:13:55.638Z,23.85
2017-07-11T11:16:24.738Z,23.67
2017-07-11T11:18:53.796Z,23.65
2017-07-11T11:21:23.611Z,23.65
2017-07-11T11:23:52.659Z,23.75
2017-07-11T11:26:21.723Z,23.74
2017-07-11T11:28:50.769Z,23.78
2017-07-11T11:31:19.835Z,23.86
2017-07-11T11:33:48.919Z,23.85
2017-07-11T11:36:17.969Z,23.82
2017-07-11T11:38:47.795Z,23.93
2017-07-11T11:41:16.851Z,24.01
2017-07-11T11:43:45.902Z,24.21
2017-07-11T11:46:14.969Z,24.42
2017-07-11T11:48:44.004Z,24.55
2017-07-11T11:51:13.224Z,24.64
2017-07-11T11:53:42.365Z,24.66
2017-07-11T11:56:11.397Z,24.73
2017-07-11T11:58:40.470Z,24.73
2017-07-11T12:01:09.566Z,24.59
2017-07-11T12:03:38.634Z,24.55
2017-07-11T12:06:07.742Z,24.65
2017-07-11T12:08:37.544Z,24.73
2017-07-11T12:11:06.737Z,24.75
2017-07-11T12:13:35.790Z,24.85
2017-07-11T12:16:05.413Z,24.98
2017-07-11T12:18:34.476Z,25.23
2017-07-11T12:21:03.526Z,25.51
2017-07-11T12:23:33.355Z,25.72
2017-07-11T12:26:02.416Z,25.69
2017-07-11T12:28:31.473Z,25.54
2017-07-11T12:31:00.584Z,25.35
2017-07-11T12:33:29.616Z,25.18
2017-07-11T12:35:59.434Z,25.14
2017-07-11T12:38:29.312Z,25.13
2017-07-11T12:40:58.401Z,25.13
2017-07-11T12:43:27.421Z,25.27
2017-07-11T12:45:56.524Z,25.37
2017-07-11T12:48:25.586Z,25.33
2017-07-11T12:50:54.643Z,25.28
2017-07-11T12:53:23.748Z,25.09
2017-07-11T12:55:52.809Z,24.98
2017-07-11T12:58:22.651Z,24.82
2017-07-11T13:00:51.734Z,24.72
2017-07-11T13:03:21.564Z,24.77
2017-07-11T13:05:50.716Z,24.84
2017-07-11T13:08:20.573Z,24.91
2017-07-11T13:10:49.648Z,24.91
2017-07-11T13:13:19.504Z,24.91
2017-07-11T13:15:48.567Z,24.89
2017-07-11T13:18:17.941Z,24.92
2017-07-11T13:20:47.021Z,24.92
2017-07-11T13:23:16.091Z,24.90
2017-07-11T13:25:45.170Z,24.92
2017-07-11T13:28:14.261Z,24.92
2017-07-11T13:30:43.327Z,24.95
2017-07-11T13:33:13.351Z,24.99
2017-07-11T13:35:42.438Z,25.01
2017-07-11T13:38:12.260Z,25.05
2017-07-11T13:40:41.332Z,25.02
2017-07-11T13:43:10.400Z,24.91
2017-07-11T13:45:39.471Z,24.80
2017-07-11T13:48:08.567Z,24.71
2017-07-11T13:50:37.625Z,24.71
2017-07-11T13:53:07.081Z,24.70
2017-07-11T13:55:36.136Z,24.68
2017-07-11T13:58:05.990Z,24.68
2017-07-11T14:00:35.056Z,24.78
2017-07-11T14:03:04.257Z,24.79
2017-07-11T14:05:33.316Z,24.86
2017-07-11T14:08:02.423Z,24.90
2017-07-11T14:10:32.497Z,24.84
2017-07-11T14:13:01.548Z,24.86
2017-07-11T14:15:30.710Z,24.81
2017-07-11T14:17:59.806Z,24.77
2017-07-11T14:20:28.912Z,24.75
2017-07-11T14:22:57.946Z,24.77
2017-07-11T14:25:27.231Z,24.82
2017-07-11T14:27:56.375Z,24.81
2017-07-11T14:30:25.402Z,24.79
2017-07-11T14:32:55.225Z,24.76
2017-07-11T14:35:24.348Z,24.73
2017-07-11T14:37:53.405Z,24.72
2017-07-11T14:40:23.496Z,24.71
2017-07-11T14:42:52.560Z,24.68
2017-07-11T14:45:21.618Z,24.66
2017-07-11T14:47:50.708Z,24.62
2017-07-11T14:50:20.575Z,24.54
2017-07-11T14:52:49.612Z,24.53
2017-07-11T14:55:19.464Z,24.61
2017-07-11T14:57:48.534Z,24.60
2017-07-11T15:00:18.341Z,24.60
2017-07-11T15:02:47.439Z,24.61
2017-07-11T15:05:17.262Z,24.54
2017-07-11T15:07:46.307Z,24.47
2017-07-11T15:10:15.364Z,24.41
2017-07-11T15:12:44.425Z,24.39
2017-07-11T15:15:14.582Z,24.37
2017-07-11T15:17:44.402Z,24.28
2017-07-11T15:20:13.467Z,24.29
2017-07-11T15:22:43.306Z,24.26
2017-07-11T15:25:12.388Z,24.23
2017-07-11T15:27:41.485Z,24.23
2017-07-11T15:30:10.564Z,24.24
2017-07-11T15:32:40.392Z,24.36
2017-07-11T15:35:09.474Z,24.43
2017-07-11T15:37:39.299Z,24.55
2017-07-11T15:40:08.399Z,24.61
2017-07-11T15:42:38.208Z,24.66
2017-07-11T15:45:07.308Z,24.69
2017-07-11T15:47:36.396Z,24.67
2017-07-11T15:50:05.554Z,24.72
2017-07-11T15:52:34.641Z,24.77
2017-07-11T15:55:03.740Z,24.72
2017-07-11T15:57:32.813Z,24.67
2017-07-11T16:00:01.887Z,24.71
2017-07-11T16:02:30.960Z,24.69
2017-07-11T16:05:00.777Z,24.75
2017-07-11T16:07:29.850Z,24.83
2017-07-11T16:09:59.676Z,24.88
2017-07-11T16:12:28.952Z,24.96
2017-07-11T16:14:57.995Z,24.90
2017-07-11T16:17:27.069Z,24.86
2017-07-11T16:19:56.907Z,24.80
2017-07-11T16:22:25.967Z,24.73
2017-07-11T16:24:55.021Z,24.64
2017-07-11T16:27:24.116Z,24.62
2017-07-11T16:29:53.174Z,24.54
2017-07-11T16:32:22.553Z,24.47
2017-07-11T16:34:51.604Z,24.50
2017-07-11T16:37:20.705Z,24.47
2017-07-11T16:39:49.753Z,24.41
2017-07-11T16:42:18.828Z,24.37
2017-07-11T16:44:48.027Z,24.40
2017-07-11T16:47:17.898Z,24.36
2017-07-11T16:49:46.976Z,24.29
2017-07-11T16:52:16.033Z,24.25
2017-07-11T16:54:45.872Z,24.23
2017-07-11T16:57:14.937Z,24.22
2017-07-11T16:59:43.980Z,24.16
2017-07-11T17:02:13.061Z,24.15
2017-07-11T17:04:42.140Z,24.08
2017-07-11T17:07:11.257Z,24.05
2017-07-11T17:09:40.278Z,24.03
2017-07-11T17:12:09.364Z,23.99
2017-07-11T17:14:38.449Z,23.94
2017-07-11T17:17:07.493Z,23.87
2017-07-11T17:19:37.320Z,23.78
2017-07-11T17:22:06.483Z,23.75
2017-07-11T17:24:35.575Z,23.70
2017-07-11T17:27:04.624Z,23.68
2017-07-11T17:29:33.714Z,23.67
2017-07-11T17:34:30.988Z,23.69
2017-07-11T17:37:00.079Z,23.70
2017-07-11T17:39:29.161Z,23.74
2017-07-11T17:41:58.978Z,23.72
2017-07-11T17:44:29.178Z,23.71
2017-07-11T17:46:58.209Z,23.73
2017-07-11T17:49:27.262Z,23.68
2017-07-11T17:51:56.339Z,23.66
2017-07-11T17:54:25.413Z,23.62
2017-07-11T17:56:54.466Z,23.68
2017-07-11T17:59:23.544Z,23.67
2017-07-11T18:01:52.895Z,23.68
2017-07-11T18:04:21.969Z,23.72
2017-07-11T18:06:51.052Z,23.74
2017-07-11T18:09:20.151Z,23.70
2017-07-11T18:11:50.881Z,23.62
2017-07-11T18:14:21.420Z,23.58
2017-07-11T18:16:51.297Z,23.51
2017-07-11T18:19:20.417Z,23.54
2017-07-11T18:21:50.236Z,23.57
2017-07-11T18:24:20.069Z,23.37
2017-07-11T18:26:49.173Z,22.97
2017-07-11T18:29:18.523Z,22.73
2017-07-11T18:31:47.665Z,22.62
2017-07-11T18:34:16.721Z,22.56
2017-07-11T18:36:45.788Z,22.47
2017-07-11T18:39:14.872Z,22.39
2017-07-11T18:41:43.936Z,22.41
2017-07-11T18:44:13.049Z,22.45
2017-07-11T18:46:42.089Z,22.47
2017-07-11T18:49:11.169Z,22.40
2017-07-11T18:51:40.251Z,22.33
2017-07-11T18:54:09.304Z,22.32
2017-07-11T18:56:38.644Z,22.28
2017-07-11T18:59:07.728Z,22.26
2017-07-11T19:01:36.786Z,22.32
2017-07-11T19:04:06.793Z,22.28
2017-07-11T19:06:36.781Z,22.23
2017-07-11T19:09:05.868Z,22.14
2017-07-11T19:11:34.966Z,22.08
2017-07-11T19:14:04.041Z,22.02
2017-07-11T19:16:33.140Z,22.01
2017-07-11T19:19:02.315Z,21.98
2017-07-11T19:21:31.471Z,21.95
2017-07-11T19:24:00.586Z,21.88
2017-07-11T19:26:29.978Z,21.89
2017-07-11T19:28:59.044Z,21.92
2017-07-11T19:31:28.125Z,21.84
2017-07-11T19:33:57.173Z,21.83
2017-07-11T19:36:26.280Z,21.87
2017-07-11T19:38:55.448Z,21.89
2017-07-11T19:41:24.577Z,21.91
2017-07-11T19:43:53.629Z,21.92
2017-07-11T19:46:22.779Z,21.89
2017-07-11T19:48:51.988Z,21.95
2017-07-11T19:51:21.155Z,21.99
2017-07-11T19:53:50.215Z,22.03
2017-07-11T19:56:19.425Z,22.03
2017-07-11T19:58:48.510Z,22.07
2017-07-11T20:01:17.949Z,22.09
2017-07-11T20:03:48.987Z,22.02
2017-07-11T20:06:18.126Z,21.92
2017-07-11T20:08:47.230Z,21.79
2017-07-11T20:11:16.299Z,21.60
2017-07-11T20:13:45.425Z,21.35
2017-07-11T20:16:14.512Z,21.18
2017-07-11T20:18:43.568Z,20.97
2017-07-11T20:21:13.720Z,20.70
2017-07-11T20:23:42.857Z,20.46
2017-07-11T20:26:12.715Z,20.21
2017-07-11T20:28:41.788Z,20.07
2017-07-11T20:31:10.886Z,19.95
2017-07-11T20:33:39.946Z,19.82
2017-07-11T20:36:09.652Z,19.75
2017-07-11T20:38:38.792Z,19.70
2017-07-11T20:41:07.931Z,19.66
2017-07-11T20:43:37.287Z,19.63
2017-07-11T20:46:07.170Z,19.60
2017-07-11T20:48:36.269Z,19.56
2017-07-11T20:51:05.329Z,19.55
2017-07-11T20:53:34.403Z,19.54
2017-07-11T20:56:03.721Z,19.56
2017-07-11T20:58:32.790Z,19.62
2017-07-11T21:01:01.895Z,19.60
2017-07-11T21:03:30.964Z,19.62
2017-07-11T21:06:00.060Z,19.64
2017-07-11T21:08:29.873Z,19.69
2017-07-11T21:10:58.940Z,19.66
2017-07-11T21:13:28.023Z,19.67
2017-07-11T21:15:57.063Z,19.67
2017-07-11T21:18:26.179Z,19.67
2017-07-11T21:20:55.258Z,19.65
2017-07-11T21:23:24.357Z,19.64
2017-07-11T21:25:53.416Z,19.63
2017-07-11T21:28:22.709Z,19.60
2017-07-11T21:30:52.559Z,19.56
2017-07-11T21:33:21.621Z,19.53
2017-07-11T21:35:51.454Z,19.50
2017-07-11T21:38:20.541Z,19.51
2017-07-11T21:40:49.639Z,19.47
2017-07-11T21:43:19.441Z,19.45
2017-07-11T21:45:50.231Z,19.43
2017-07-11T21:48:20.254Z,19.42
2017-07-11T21:50:49.369Z,19.41
2017-07-11T21:53:18.755Z,19.42
2017-07-11T21:55:47.813Z,19.40
2017-07-11T21:58:16.881Z,19.38
2017-07-11T22:00:46.699Z,19.39
2017-07-11T22:03:15.780Z,19.38
2017-07-11T22:05:44.860Z,19.37
2017-07-11T22:08:14.351Z,19.32
2017-07-11T22:10:43.420Z,19.31
2017-07-11T22:13:12.460Z,19.29
2017-07-11T22:15:41.541Z,19.24
2017-07-11T22:18:10.644Z,19.27
2017-07-11T22:20:39.766Z,19.21
2017-07-11T22:23:08.770Z,19.20
2017-07-11T22:25:38.597Z,19.16
2017-07-11T22:28:07.676Z,19.14
2017-07-11T22:30:36.711Z,19.11
2017-07-11T22:33:05.783Z,19.05
2017-07-11T22:35:34.829Z,19.04
2017-07-11T22:38:03.953Z,19.02
2017-07-11T22:40:33.041Z,19.02
2017-07-11T22:43:02.868Z,19.00
2017-07-11T22:45:32.701Z,18.95
2017-07-11T22:48:01.769Z,18.95
2017-07-11T22:50:31.618Z,18.98
2017-07-11T22:53:00.688Z,18.97
2017-07-11T22:55:29.819Z,18.97
2017-07-11T22:57:59.134Z,18.96
2017-07-11T23:00:29.304Z,18.91
2017-07-11T23:02:59.129Z,18.91
2017-07-11T23:05:28.213Z,18.94
2017-07-11T23:07:58.028Z,18.90
2017-07-11T23:10:27.071Z,18.86
2017-07-11T23:12:56.137Z,18.87
2017-07-11T23:15:25.189Z,18.84
2017-07-11T23:17:55.109Z,18.87
2017-07-11T23:20:24.946Z,18.87
2017-07-11T23:22:54.774Z,18.90
2017-07-11T23:25:23.834Z,18.90
2017-07-11T23:27:52.891Z,18.90
2017-07-11T23:30:21.963Z,18.90
2017-07-11T23:32:51.036Z,18.91
2017-07-11T23:35:20.116Z,18.88
2017-07-11T23:37:49.937Z,18.84
2017-07-11T23:40:19.045Z,18.80
2017-07-11T23:42:48.106Z,18.76
2017-07-11T23:45:17.958Z,18.75
2017-07-11T23:47:47.787Z,18.73
2017-07-11T23:50:17.608Z,18.73
2017-07-11T23:52:46.674Z,18.72
2017-07-11T23:55:15.758Z,18.73
2017-07-11T23:57:44.812Z,18.76
